Weather at Potchefstroom Airport

Public forecast

Using degrees Celsius for public forecast. Weather courtesy of forecast.io.

Current aviation weather report (METAR) for Potchefstroom Airport

Report is more than 6 hours old.

Retrieved 2013/07/12 07:00 UTC (7 years ago):

FAPS 120700Z AUTO 08002KT //// // ////// 11/// Q1032

Closest aviation forecast (TAF) to Potchefstroom Airport

Closest forecast is Lanseria Airport, 63.2 nm (117.1 km) NE. Retrieved 2020/09/30 12:00 UTC (2 hours ago):

TAF FALA 301000Z 3012/0112 34015KT 9999 SCT035 TX24/3013Z TN14/0105Z PROB30 TEMPO 3015/3019 -TSRA FEW035CB BECMG 3018/3020 04010KT BKN020 BECMG 0100/0102 BKN015 PROB30 TEMPO 0102/0106 2000 BR BKN005 PROB40 TEMPO 0103/0108 5000 TSRA FEW035CB BECMG 0109/0111 BKN035 BECMG 0110/0112 32012KT